createdAt,value
2022-10-13T00:00:49.861Z,17.48
2022-10-13T00:03:51.775Z,17.88
2022-10-13T00:06:53.644Z,17.42
2022-10-13T00:09:56.876Z,17.50
2022-10-13T00:12:58.759Z,17.95
2022-10-13T00:16:03.028Z,16.27
2022-10-13T00:19:05.248Z,19.05
2022-10-13T00:22:07.202Z,17.77
2022-10-13T00:25:10.701Z,18.77
2022-10-13T00:28:13.581Z,19.50
2022-10-13T00:31:17.528Z,17.63
2022-10-13T00:34:19.456Z,17.63
2022-10-13T00:37:21.393Z,18.02
2022-10-13T00:40:24.859Z,17.92
2022-10-13T00:43:47.396Z,17.10
2022-10-13T00:46:49.310Z,17.55
2022-10-13T00:49:53.039Z,17.83
2022-10-13T00:52:57.077Z,17.73
2022-10-13T00:56:01.189Z,16.88
2022-10-13T00:59:05.553Z,19.88
2022-10-13T01:02:08.025Z,19.88
2022-10-13T01:05:10.186Z,20.08
2022-10-13T01:08:13.001Z,19.35
2022-10-13T01:11:29.595Z,20.10
2022-10-13T01:14:36.511Z,21.33
2022-10-13T01:17:49.897Z,21.70
2022-10-13T01:21:16.797Z,18.85
2022-10-13T01:24:47.637Z,19.55
2022-10-13T01:31:07.174Z,19.30
2022-10-13T01:34:16.302Z,19.73
2022-10-13T01:37:27.527Z,20.45
2022-10-13T01:40:35.321Z,20.38
2022-10-13T01:43:42.086Z,20.08
2022-10-13T01:46:49.540Z,20.55
2022-10-13T01:49:53.064Z,19.85
2022-10-13T01:52:55.896Z,20.10
2022-10-13T01:56:00.064Z,18.88
2022-10-13T01:59:05.623Z,20.77
2022-10-13T02:02:18.974Z,21.25
2022-10-13T02:05:27.327Z,20.40
2022-10-13T02:08:36.886Z,19.90
2022-10-13T02:11:43.142Z,18.85
2022-10-13T02:14:46.932Z,18.08
2022-10-13T02:17:51.232Z,18.45
2022-10-13T02:20:54.275Z,18.85
2022-10-13T02:23:56.225Z,19.40
2022-10-13T02:26:58.376Z,18.63
2022-10-13T02:30:00.365Z,19.90
2022-10-13T02:33:03.797Z,18.55
2022-10-13T02:36:06.130Z,19.92
2022-10-13T02:39:09.540Z,19.58
2022-10-13T02:42:11.738Z,19.70
2022-10-13T02:45:13.742Z,20.40
2022-10-13T02:48:17.095Z,19.58
2022-10-13T02:51:19.060Z,20.98
2022-10-13T02:54:22.003Z,19.42
2022-10-13T02:57:24.967Z,18.75
2022-10-13T03:00:26.907Z,18.95
2022-10-13T03:03:30.267Z,18.80
2022-10-13T03:06:32.131Z,17.45
2022-10-13T03:09:33.994Z,18.05
2022-10-13T03:12:35.905Z,19.77
2022-10-13T03:15:38.826Z,20.55
2022-10-13T03:18:42.097Z,19.77
2022-10-13T03:21:44.011Z,19.40
2022-10-13T03:24:46.077Z,18.15
2022-10-13T03:27:47.953Z,18.67
2022-10-13T03:30:50.961Z,19.38
2022-10-13T03:33:54.579Z,18.73
2022-10-13T03:36:56.601Z,18.90
2022-10-13T03:39:58.604Z,19.17
2022-10-13T03:43:00.537Z,16.90
2022-10-13T03:46:03.522Z,19.20
2022-10-13T03:49:07.113Z,18.23
2022-10-13T03:52:09.054Z,18.52
2022-10-13T03:55:11.046Z,18.38
2022-10-13T03:58:13.068Z,18.42
2022-10-13T04:01:15.035Z,19.42
2022-10-13T04:04:18.355Z,18.92
2022-10-13T04:07:20.265Z,17.42
2022-10-13T04:10:22.174Z,18.30
2022-10-13T04:13:24.028Z,20.38
2022-10-13T04:16:28.216Z,19.58
2022-10-13T04:19:31.467Z,17.85
2022-10-13T04:22:33.706Z,19.00
2022-10-13T04:25:35.979Z,19.77
2022-10-13T04:28:37.882Z,18.65
2022-10-13T04:31:40.303Z,19.27
2022-10-13T04:34:43.598Z,18.52
2022-10-13T04:37:45.498Z,19.23
2022-10-13T04:40:47.482Z,17.95
2022-10-13T04:43:50.284Z,18.65
2022-10-13T04:46:52.156Z,17.63
2022-10-13T04:49:55.432Z,18.33
2022-10-13T04:52:59.018Z,18.83
2022-10-13T04:56:03.064Z,18.58
2022-10-13T04:59:05.401Z,19.38
2022-10-13T05:02:07.470Z,21.08
2022-10-13T05:05:11.254Z,19.52
2022-10-13T05:08:13.117Z,21.58
2022-10-13T05:11:16.134Z,17.77
2022-10-13T05:14:18.131Z,18.88
2022-10-13T05:17:20.885Z,17.75
2022-10-13T05:20:29.685Z,19.50
2022-10-13T05:23:33.066Z,19.35
2022-10-13T05:26:36.042Z,19.73
2022-10-13T05:29:40.551Z,19.80
2022-10-13T05:32:43.333Z,18.80
2022-10-13T05:35:48.050Z,20.02
2022-10-13T05:38:52.352Z,20.17
2022-10-13T05:41:56.036Z,21.65
2022-10-13T05:44:59.840Z,20.10
2022-10-13T05:48:01.913Z,20.13
2022-10-13T05:51:07.738Z,20.73
2022-10-13T05:54:14.098Z,21.10
2022-10-13T05:57:21.446Z,21.27
2022-10-13T06:00:25.427Z,22.58
2022-10-13T06:03:28.519Z,21.77
2022-10-13T06:06:33.186Z,21.23
2022-10-13T06:09:38.357Z,21.17
2022-10-13T06:12:40.389Z,22.05
2022-10-13T06:15:42.300Z,21.30
2022-10-13T06:18:44.476Z,21.88
2022-10-13T06:21:47.809Z,21.95
2022-10-13T06:24:49.853Z,21.35
2022-10-13T06:27:51.759Z,21.17
2022-10-13T06:30:53.693Z,22.60
2022-10-13T06:33:55.716Z,23.10
2022-10-13T06:36:59.158Z,23.52
2022-10-13T06:40:01.077Z,23.30
2022-10-13T06:43:03.266Z,25.25
2022-10-13T06:46:05.563Z,25.17
2022-10-13T06:49:07.658Z,24.30
2022-10-13T06:52:10.946Z,24.38
2022-10-13T06:55:13.029Z,24.75
2022-10-13T06:58:14.887Z,23.63
2022-10-13T07:01:16.951Z,26.00
2022-10-13T07:04:18.874Z,26.00
2022-10-13T07:07:22.270Z,26.27
2022-10-13T07:10:24.290Z,25.40
2022-10-13T07:13:26.236Z,24.40
2022-10-13T07:16:28.212Z,24.15
2022-10-13T07:19:30.204Z,25.13
2022-10-13T07:22:33.475Z,24.15
2022-10-13T07:25:35.441Z,22.88
2022-10-13T07:28:38.055Z,24.17
2022-10-13T07:31:40.220Z,23.67
2022-10-13T07:34:42.133Z,25.77
2022-10-13T07:37:45.722Z,25.52
2022-10-13T07:40:47.649Z,25.42
2022-10-13T07:43:49.716Z,25.60
2022-10-13T07:46:51.723Z,24.10
2022-10-13T07:49:53.606Z,25.83
2022-10-13T07:52:56.935Z,24.05
2022-10-13T07:56:00.488Z,23.77
2022-10-13T07:59:02.742Z,24.05
2022-10-13T08:02:04.797Z,22.35
2022-10-13T08:05:07.225Z,24.38
2022-10-13T08:08:10.435Z,23.23
2022-10-13T08:11:16.434Z,22.00
2022-10-13T08:14:19.133Z,22.20
2022-10-13T08:17:21.281Z,21.48
2022-10-13T08:20:26.291Z,20.83
2022-10-13T08:23:32.058Z,18.67
2022-10-13T08:26:33.930Z,16.92
2022-10-13T08:29:35.961Z,19.15
2022-10-13T08:32:38.014Z,19.33
2022-10-13T08:35:40.072Z,16.70
2022-10-13T08:38:43.839Z,17.88
2022-10-13T08:41:46.140Z,12.52
2022-10-13T08:45:28.347Z,14.60
2022-10-13T08:48:18.632Z,15.30
2022-10-13T08:51:21.040Z,14.38
2022-10-13T08:54:26.027Z,14.93
2022-10-13T08:57:27.948Z,16.70
2022-10-13T09:00:30.372Z,16.00
2022-10-13T09:03:32.297Z,16.38
2022-10-13T09:06:38.697Z,15.95
2022-10-13T09:09:42.411Z,14.68
2022-10-13T09:12:44.417Z,14.18
2022-10-13T09:15:48.127Z,12.43
2022-10-13T09:18:50.119Z,11.60
2022-10-13T09:21:54.178Z,12.77
2022-10-13T09:25:16.717Z,12.52
2022-10-13T09:28:22.963Z,11.80
2022-10-13T09:31:27.939Z,11.98
2022-10-13T09:34:29.986Z,11.77
2022-10-13T09:37:31.870Z,11.68
2022-10-13T09:40:37.034Z,9.93
2022-10-13T09:43:42.929Z,11.30
2022-10-13T09:46:56.618Z,9.98
2022-10-13T09:50:06.561Z,9.65
2022-10-13T09:53:26.307Z,11.25
2022-10-13T09:56:36.210Z,10.82
2022-10-13T09:59:43.169Z,10.57
2022-10-13T10:02:53.549Z,9.88
2022-10-13T10:05:57.511Z,9.65
2022-10-13T10:09:05.965Z,9.32
2022-10-13T10:12:16.281Z,9.88
2022-10-13T10:15:23.675Z,9.15
2022-10-13T10:18:33.872Z,8.68
2022-10-13T10:21:42.677Z,9.40
2022-10-13T10:24:52.082Z,9.00
2022-10-13T10:31:18.597Z,9.00
2022-10-13T10:34:31.040Z,9.18
2022-10-13T10:37:52.374Z,9.63
2022-10-13T10:41:02.222Z,9.32
2022-10-13T10:44:10.081Z,10.30
2022-10-13T10:47:28.200Z,9.45
2022-10-13T10:50:31.837Z,8.23
2022-10-13T10:53:42.006Z,9.38
2022-10-13T10:56:49.476Z,9.18
2022-10-13T10:59:59.546Z,8.88
2022-10-13T11:03:08.512Z,9.57
2022-10-13T11:06:31.702Z,8.68
2022-10-13T11:10:17.229Z,8.98
2022-10-13T11:13:19.265Z,9.73
2022-10-13T11:16:29.559Z,9.82
2022-10-13T11:19:32.967Z,9.70
2022-10-13T11:22:34.919Z,10.05
2022-10-13T11:25:38.075Z,9.18
2022-10-13T11:28:47.662Z,9.88
2022-10-13T11:31:53.838Z,10.18
2022-10-13T11:34:59.431Z,9.98
2022-10-13T11:38:18.204Z,10.55
2022-10-13T11:41:28.101Z,9.65
2022-10-13T11:44:37.785Z,9.57
2022-10-13T11:47:58.242Z,9.68
2022-10-13T11:51:12.511Z,10.98
2022-10-13T11:54:27.310Z,9.90
2022-10-13T11:57:29.392Z,9.70
2022-10-13T12:00:31.500Z,9.75
2022-10-13T12:03:36.499Z,9.45
2022-10-13T12:06:38.696Z,9.73
2022-10-13T12:09:49.561Z,9.98
2022-10-13T12:12:52.054Z,9.75
2022-10-13T12:15:59.449Z,8.93
2022-10-13T12:19:20.893Z,9.07
2022-10-13T12:22:23.147Z,9.07
2022-10-13T12:25:28.161Z,9.32
2022-10-13T12:28:43.601Z,9.52
2022-10-13T12:31:47.504Z,9.07
2022-10-13T12:34:51.117Z,9.20
2022-10-13T12:37:54.341Z,8.70
2022-10-13T12:40:56.825Z,8.95
2022-10-13T12:44:01.252Z,9.15
2022-10-13T12:47:06.192Z,8.13
2022-10-13T12:50:37.149Z,8.70
2022-10-13T12:53:39.304Z,8.98
2022-10-13T12:56:42.492Z,8.00
2022-10-13T12:59:44.523Z,8.52
2022-10-13T13:02:52.034Z,9.20
2022-10-13T13:06:10.339Z,8.60
2022-10-13T13:09:21.213Z,8.30
2022-10-13T13:12:28.705Z,8.32
2022-10-13T13:15:34.029Z,8.95
2022-10-13T13:18:38.980Z,8.60
2022-10-13T13:21:42.533Z,8.95
2022-10-13T13:24:45.147Z,8.18
2022-10-13T13:27:47.376Z,8.98
2022-10-13T13:30:49.242Z,9.07
2022-10-13T13:33:51.257Z,8.23
2022-10-13T13:36:54.689Z,8.13
2022-10-13T13:39:56.608Z,9.20
2022-10-13T13:42:58.557Z,7.95
2022-10-13T13:46:00.372Z,8.85
2022-10-13T13:49:02.312Z,8.55
2022-10-13T13:52:05.680Z,9.15
2022-10-13T13:55:08.727Z,9.27
2022-10-13T13:58:11.826Z,9.27
2022-10-13T14:01:14.539Z,10.55
2022-10-13T14:04:16.452Z,10.93
2022-10-13T14:07:20.006Z,9.50
2022-10-13T14:10:22.390Z,10.63
2022-10-13T14:13:24.395Z,10.48
2022-10-13T14:16:26.448Z,10.38
2022-10-13T14:19:28.629Z,10.48
2022-10-13T14:22:32.042Z,11.10
2022-10-13T14:25:33.996Z,11.48
2022-10-13T14:28:35.932Z,10.85
2022-10-13T14:31:37.957Z,10.80
2022-10-13T14:34:39.988Z,11.27
2022-10-13T14:37:43.365Z,11.43
2022-10-13T14:40:45.287Z,11.70
2022-10-13T14:43:47.193Z,11.02
2022-10-13T14:46:49.144Z,11.95
2022-10-13T14:49:51.061Z,12.02
2022-10-13T14:52:54.460Z,11.73
2022-10-13T14:55:56.416Z,11.85
2022-10-13T14:59:01.581Z,11.52
2022-10-13T15:02:03.546Z,11.45
2022-10-13T15:05:06.672Z,12.05
2022-10-13T15:08:10.228Z,11.85
2022-10-13T15:11:12.578Z,12.57
2022-10-13T15:14:14.621Z,12.75
2022-10-13T15:17:16.513Z,12.90
2022-10-13T15:20:18.837Z,15.50
2022-10-13T15:23:22.270Z,12.93
2022-10-13T15:26:24.298Z,13.68
2022-10-13T15:29:26.249Z,12.70
2022-10-13T15:32:28.681Z,13.05
2022-10-13T15:35:30.646Z,14.27
2022-10-13T15:38:33.912Z,13.05
2022-10-13T15:41:35.851Z,13.68
2022-10-13T15:45:08.025Z,13.82
2022-10-13T15:47:59.694Z,13.50
2022-10-13T15:51:02.381Z,13.02
2022-10-13T15:54:07.290Z,12.05
2022-10-13T15:57:09.211Z,12.73
2022-10-13T16:00:12.943Z,14.80
2022-10-13T16:03:17.332Z,15.32
2022-10-13T16:06:19.180Z,14.00
2022-10-13T16:09:22.467Z,15.35
2022-10-13T16:12:24.410Z,14.10
2022-10-13T16:15:26.411Z,13.32
2022-10-13T16:18:31.688Z,12.75
2022-10-13T16:21:33.688Z,14.20
2022-10-13T16:24:37.265Z,13.65
2022-10-13T16:27:43.846Z,13.23
2022-10-13T16:30:46.349Z,13.93
2022-10-13T16:33:48.469Z,13.95
2022-10-13T16:36:50.374Z,14.65
2022-10-13T16:39:53.733Z,14.25
2022-10-13T16:42:55.738Z,11.85
2022-10-13T16:46:00.001Z,12.05
2022-10-13T16:49:02.496Z,14.43
2022-10-13T16:52:04.587Z,13.40
2022-10-13T16:55:09.065Z,13.82
2022-10-13T16:58:11.424Z,12.52
2022-10-13T17:01:13.783Z,14.05
2022-10-13T17:04:19.802Z,13.65
2022-10-13T17:07:24.362Z,14.35
2022-10-13T17:10:27.852Z,12.93
2022-10-13T17:13:31.563Z,13.15
2022-10-13T17:16:34.138Z,13.75
2022-10-13T17:19:36.077Z,12.52
2022-10-13T17:22:38.604Z,13.02
2022-10-13T17:25:42.654Z,13.57
2022-10-13T17:28:45.649Z,13.73
2022-10-13T17:31:48.629Z,14.48
2022-10-13T17:34:51.152Z,15.30
2022-10-13T17:37:53.907Z,14.48
2022-10-13T17:41:02.754Z,14.73
2022-10-13T17:44:10.002Z,15.25
2022-10-13T17:47:12.195Z,15.20
2022-10-13T17:50:15.849Z,14.50
2022-10-13T17:53:18.456Z,14.85
2022-10-13T17:56:25.111Z,14.15
2022-10-13T17:59:27.282Z,16.38
2022-10-13T18:02:29.721Z,17.75
2022-10-13T18:05:32.004Z,16.92
2022-10-13T18:08:34.649Z,15.80
2022-10-13T18:11:39.691Z,16.35
2022-10-13T18:14:43.255Z,16.60
2022-10-13T18:17:46.343Z,15.77
2022-10-13T18:20:48.857Z,15.75
2022-10-13T18:23:52.137Z,14.20
2022-10-13T18:26:56.655Z,14.35
2022-10-13T18:29:59.202Z,15.18
2022-10-13T18:33:01.914Z,16.02
2022-10-13T18:36:12.868Z,15.75
2022-10-13T18:39:17.762Z,15.07
2022-10-13T18:42:22.382Z,15.35
2022-10-13T18:45:25.209Z,16.58
2022-10-13T18:48:28.462Z,17.88
2022-10-13T18:51:35.908Z,16.33
2022-10-13T18:54:39.418Z,15.57
2022-10-13T18:57:44.751Z,16.55
2022-10-13T19:00:47.391Z,15.65
2022-10-13T19:03:51.271Z,16.73
2022-10-13T19:06:53.954Z,18.50
2022-10-13T19:09:57.127Z,17.63
2022-10-13T19:13:01.185Z,16.55
2022-10-13T19:16:04.127Z,16.48
2022-10-13T19:19:06.997Z,15.32
2022-10-13T19:22:11.033Z,15.20
2022-10-13T19:25:13.957Z,14.60
2022-10-13T19:28:21.389Z,13.52
2022-10-13T19:31:26.405Z,13.90
2022-10-13T19:34:29.296Z,13.48
2022-10-13T19:37:32.773Z,15.38
2022-10-13T19:40:41.473Z,14.13
2022-10-13T19:43:47.039Z,14.52
2022-10-13T19:46:50.877Z,14.80
2022-10-13T19:49:54.238Z,15.00
2022-10-13T19:52:57.025Z,15.90
2022-10-13T19:55:59.859Z,16.48
2022-10-13T19:59:04.955Z,17.63
2022-10-13T20:02:08.285Z,18.15
2022-10-13T20:05:10.974Z,17.85
2022-10-13T20:08:13.542Z,16.88
2022-10-13T20:11:22.401Z,17.23
2022-10-13T20:14:27.874Z,16.85
2022-10-13T20:17:30.550Z,18.13
2022-10-13T20:20:34.041Z,18.65
2022-10-13T20:23:36.489Z,17.45
2022-10-13T20:26:38.886Z,16.80
2022-10-13T20:29:42.370Z,18.05
2022-10-13T20:32:44.332Z,16.67
2022-10-13T20:35:46.324Z,15.80
2022-10-13T20:38:48.788Z,15.68
2022-10-13T20:41:50.726Z,16.52
2022-10-13T20:44:54.059Z,16.50
2022-10-13T20:47:56.086Z,14.88
2022-10-13T20:51:01.596Z,15.30
2022-10-13T20:54:03.693Z,16.25
2022-10-13T20:57:05.625Z,16.42
2022-10-13T21:00:10.629Z,16.60
2022-10-13T21:03:12.531Z,16.67
2022-10-13T21:06:15.195Z,16.50
2022-10-13T21:09:17.171Z,17.63
2022-10-13T21:12:19.150Z,16.02
2022-10-13T21:15:22.494Z,15.27
2022-10-13T21:18:24.570Z,15.07
2022-10-13T21:21:29.194Z,16.30
2022-10-13T21:24:31.241Z,17.88
2022-10-13T21:27:33.227Z,17.65
2022-10-13T21:30:36.548Z,19.90
2022-10-13T21:33:39.733Z,16.13
2022-10-13T21:36:41.671Z,17.55
2022-10-13T21:39:43.622Z,17.50
2022-10-13T21:42:45.839Z,17.40
2022-10-13T21:45:49.301Z,18.95
2022-10-13T21:48:53.167Z,19.77
2022-10-13T21:51:55.283Z,20.58
2022-10-13T21:54:57.151Z,20.25
2022-10-13T21:58:02.972Z,15.80
2022-10-13T22:01:08.747Z,15.27
2022-10-13T22:04:13.478Z,17.65
2022-10-13T22:07:15.469Z,20.33
2022-10-13T22:10:17.468Z,20.60
2022-10-13T22:13:19.386Z,19.42
2022-10-13T22:16:24.282Z,16.67
2022-10-13T22:19:26.258Z,16.60
2022-10-13T22:22:30.926Z,16.48
2022-10-13T22:25:33.132Z,19.83
2022-10-13T22:28:37.467Z,19.35
2022-10-13T22:31:41.125Z,19.58
2022-10-13T22:34:43.090Z,19.27
2022-10-13T22:37:44.999Z,17.58
2022-10-13T22:40:46.936Z,19.27
2022-10-13T22:43:50.666Z,18.65
2022-10-13T22:46:53.954Z,20.58
2022-10-13T22:49:55.961Z,20.70
2022-10-13T22:52:57.851Z,20.30
2022-10-13T22:56:00.297Z,20.65
2022-10-13T22:59:04.989Z,18.75
2022-10-13T23:02:08.387Z,22.80
2022-10-13T23:05:10.319Z,23.63
2022-10-13T23:08:12.278Z,21.40
2022-10-13T23:11:14.454Z,18.13
2022-10-13T23:14:16.541Z,18.45
2022-10-13T23:17:20.245Z,18.85
2022-10-13T23:20:22.465Z,19.50
2022-10-13T23:23:24.482Z,18.58
2022-10-13T23:26:26.832Z,18.50
2022-10-13T23:29:28.710Z,18.38
2022-10-13T23:32:32.004Z,20.38
2022-10-13T23:35:33.937Z,20.05
2022-10-13T23:38:35.835Z,19.95
2022-10-13T23:41:38.089Z,19.60
2022-10-13T23:44:40.009Z,19.55
2022-10-13T23:47:43.409Z,18.63
2022-10-13T23:50:45.344Z,20.25
2022-10-13T23:53:47.382Z,21.13
2022-10-13T23:56:49.322Z,21.50
2022-10-13T23:59:51.284Z,20.58
